createdAt,value
2016-07-24T00:00:47.904Z,83.66
2016-07-24T00:01:47.929Z,83.18
2016-07-24T00:02:48.668Z,83.28
2016-07-24T00:03:47.986Z,83.47
2016-07-24T00:04:48.736Z,83.85
2016-07-24T00:05:48.048Z,83.75
2016-07-24T00:06:48.072Z,83.66
2016-07-24T00:07:48.100Z,83.75
2016-07-24T00:08:48.130Z,83.75
2016-07-24T00:09:48.867Z,83.85
2016-07-24T00:10:49.831Z,83.56
2016-07-24T00:11:48.213Z,83.37
2016-07-24T00:12:48.244Z,83.18
2016-07-24T00:13:48.977Z,82.98
2016-07-24T00:14:48.297Z,82.5
2016-07-24T00:15:48.324Z,82.41
2016-07-24T00:16:48.358Z,82.6
2016-07-24T00:17:48.380Z,82.79
2016-07-24T00:18:48.408Z,82.45
2016-07-24T00:19:48.437Z,82.41
2016-07-24T00:20:48.465Z,82.45
2016-07-24T00:21:48.492Z,82.64
2016-07-24T00:22:48.532Z,82.45
2016-07-24T00:23:48.549Z,82.45
2016-07-24T00:24:48.581Z,82.35
2016-07-24T00:25:48.608Z,81.68
2016-07-24T00:26:48.633Z,81.77
2016-07-24T00:27:48.665Z,81.39
2016-07-24T00:28:48.691Z,81.39
2016-07-24T00:29:48.721Z,81.29
2016-07-24T00:30:49.458Z,81.01
2016-07-24T00:31:48.776Z,80.94
2016-07-24T00:32:48.807Z,80.81
2016-07-24T00:33:48.838Z,80.94
2016-07-24T00:34:48.860Z,80.08
2016-07-24T00:35:48.890Z,80.04
2016-07-24T00:36:48.919Z,80.14
2016-07-24T00:37:48.965Z,80.66
2016-07-24T00:38:48.977Z,80.52
2016-07-24T00:39:49.000Z,80.43
2016-07-24T00:40:49.031Z,80.43
2016-07-24T00:41:49.059Z,80.04
2016-07-24T00:42:49.089Z,80.27
2016-07-24T00:43:49.115Z,80.18
2016-07-24T00:44:49.143Z,80.08
2016-07-24T00:45:49.183Z,80.08
2016-07-24T00:46:49.203Z,80.18
2016-07-24T00:47:49.233Z,80.04
2016-07-24T00:48:49.260Z,80.14
2016-07-24T00:49:49.291Z,80.04
2016-07-24T00:50:49.316Z,79.79
2016-07-24T00:51:49.348Z,80.18
2016-07-24T00:52:49.389Z,80.14
2016-07-24T00:53:49.401Z,79.66
2016-07-24T00:54:49.431Z,80.04
2016-07-24T00:55:49.456Z,79.98
2016-07-24T00:56:50.196Z,79.79
2016-07-24T00:57:49.513Z,79.66
2016-07-24T00:58:49.548Z,80.08
2016-07-24T00:59:49.570Z,79.79
2016-07-24T01:00:49.698Z,80.08
2016-07-24T01:01:49.633Z,79.69
2016-07-24T01:02:49.658Z,79.89
2016-07-24T01:03:49.688Z,79.5
2016-07-24T01:04:49.712Z,79.79
2016-07-24T01:05:49.743Z,79.21
2016-07-24T01:06:49.768Z,79.6
2016-07-24T01:07:49.798Z,79.11
2016-07-24T01:08:49.826Z,79.21
2016-07-24T01:09:49.855Z,78.83
2016-07-24T01:10:49.890Z,78.83
2016-07-24T01:11:49.912Z,79.41
2016-07-24T01:12:49.938Z,78.83
2016-07-24T01:13:49.972Z,78.63
2016-07-24T01:14:49.997Z,78.73
2016-07-24T01:15:50.031Z,79.21
2016-07-24T01:16:50.057Z,78.92
2016-07-24T01:17:50.090Z,78.63
2016-07-24T01:18:50.822Z,78.73
2016-07-24T01:19:50.139Z,79.21
2016-07-24T01:20:50.168Z,78.83
2016-07-24T01:21:50.197Z,78.15
2016-07-24T01:22:50.221Z,79.11
2016-07-24T01:23:50.967Z,78.92
2016-07-24T01:24:50.283Z,79.31
2016-07-24T01:25:51.018Z,79.31
2016-07-24T01:26:50.339Z,79.69
2016-07-24T01:27:50.367Z,78.73
2016-07-24T01:28:50.393Z,78.92
2016-07-24T01:29:50.421Z,79.41
2016-07-24T01:30:50.452Z,79.6
2016-07-24T01:31:50.480Z,79.21
2016-07-24T01:32:50.506Z,79.21
2016-07-24T01:33:51.246Z,78.83
2016-07-24T01:34:50.580Z,78.83
2016-07-24T01:35:51.304Z,79.02
2016-07-24T01:36:50.622Z,78.63
2016-07-24T01:37:50.648Z,78.15
2016-07-24T01:38:51.390Z,78.44
2016-07-24T01:39:50.704Z,78.15
2016-07-24T01:40:50.734Z,78.34
2016-07-24T01:41:50.788Z,77.96
2016-07-24T01:42:50.796Z,78.63
2016-07-24T01:43:50.828Z,78.34
2016-07-24T01:44:50.852Z,78.25
2016-07-24T01:45:50.879Z,78.15
2016-07-24T01:46:50.905Z,77.76
2016-07-24T01:47:50.933Z,78.15
2016-07-24T01:48:50.962Z,77.86
2016-07-24T01:49:51.003Z,78.44
2016-07-24T01:50:51.030Z,78.06
2016-07-24T01:51:51.056Z,78.34
2016-07-24T01:52:51.082Z,78.34
2016-07-24T01:53:51.106Z,78.15
2016-07-24T01:54:51.132Z,77.76
2016-07-24T01:55:51.167Z,77.71
2016-07-24T01:56:51.190Z,77.28
2016-07-24T01:57:51.220Z,77.96
2016-07-24T01:58:51.249Z,78.15
2016-07-24T01:59:52.004Z,77.38
2016-07-24T02:00:51.306Z,77.58
2016-07-24T02:01:51.331Z,77.09
2016-07-24T02:02:51.362Z,77.28
2016-07-24T02:03:51.390Z,77.38
2016-07-24T02:04:51.418Z,77.48
2016-07-24T02:05:51.454Z,77.86
2016-07-24T02:06:51.476Z,78
2016-07-24T02:07:51.503Z,77.33
2016-07-24T02:08:51.535Z,77.28
2016-07-24T02:09:51.559Z,77.86
2016-07-24T02:10:51.591Z,77.71
2016-07-24T02:11:51.620Z,77.67
2016-07-24T02:12:51.648Z,77.33
2016-07-24T02:13:51.672Z,77.33
2016-07-24T02:14:51.727Z,77.33
2016-07-24T02:15:51.732Z,77.71
2016-07-24T02:16:51.760Z,77.33
2016-07-24T02:17:52.500Z,77.33
2016-07-24T02:18:52.530Z,78.09
2016-07-24T02:19:51.847Z,77.51
2016-07-24T02:20:52.585Z,77.13
2016-07-24T02:21:51.905Z,77.13
2016-07-24T02:22:51.945Z,77.33
2016-07-24T02:23:51.965Z,77.33
2016-07-24T02:24:51.988Z,77.51
2016-07-24T02:25:52.016Z,77.33
2016-07-24T02:26:52.047Z,77.03
2016-07-24T02:27:52.075Z,77.71
2016-07-24T02:28:52.105Z,77.42
2016-07-24T02:29:52.150Z,77.51
2016-07-24T02:30:52.162Z,77.33
2016-07-24T02:31:52.190Z,77.23
2016-07-24T02:32:52.925Z,77.51
2016-07-24T02:33:52.248Z,77.42
2016-07-24T02:34:52.273Z,77.13
2016-07-24T02:35:53.013Z,77.51
2016-07-24T02:36:52.335Z,77.33
2016-07-24T02:37:53.170Z,77.33
2016-07-24T02:38:52.399Z,77.23
2016-07-24T02:39:52.420Z,76.75
2016-07-24T02:40:52.451Z,76.93
2016-07-24T02:41:52.471Z,77.33
2016-07-24T02:42:52.501Z,76.84
2016-07-24T02:43:52.531Z,77.19
2016-07-24T02:44:53.309Z,76.84
2016-07-24T02:45:52.604Z,77.23
2016-07-24T02:46:52.619Z,77.03
2016-07-24T02:47:52.646Z,76.84
2016-07-24T02:48:52.675Z,76.8
2016-07-24T02:49:52.704Z,77.33
2016-07-24T02:50:52.731Z,77.13
2016-07-24T02:51:52.767Z,77.38
2016-07-24T02:52:52.791Z,77.33
2016-07-24T02:53:52.862Z,77.23
2016-07-24T02:54:52.848Z,77.13
2016-07-24T02:55:52.872Z,76.61
2016-07-24T02:56:53.615Z,77.13
2016-07-24T02:57:52.933Z,76.17
2016-07-24T02:58:52.961Z,76.9
2016-07-24T02:59:52.991Z,77
2016-07-24T03:00:53.017Z,77.03
2016-07-24T03:01:53.043Z,77.38
2016-07-24T03:02:53.074Z,77.42
2016-07-24T03:03:53.127Z,77.33
2016-07-24T03:04:53.131Z,77.38
2016-07-24T03:05:53.159Z,77.51
2016-07-24T03:06:53.190Z,77.23
2016-07-24T03:07:53.216Z,77.48
2016-07-24T03:08:53.243Z,77.13
2016-07-24T03:09:53.274Z,77.13
2016-07-24T03:10:53.304Z,77.03
2016-07-24T03:11:53.343Z,76.75
2016-07-24T03:12:53.363Z,76.93
2016-07-24T03:13:53.391Z,77.42
2016-07-24T03:14:53.417Z,76.75
2016-07-24T03:15:53.449Z,76.75
2016-07-24T03:16:54.184Z,76.65
2016-07-24T03:17:53.509Z,77.09
2016-07-24T03:18:53.557Z,76.61
2016-07-24T03:19:53.563Z,76.42
2016-07-24T03:20:53.591Z,76.93
2016-07-24T03:21:53.614Z,77.09
2016-07-24T03:22:53.645Z,77.28
2016-07-24T03:23:53.675Z,77.09
2016-07-24T03:24:53.703Z,77.28
2016-07-24T03:25:54.443Z,76.93
2016-07-24T03:26:53.768Z,76.71
2016-07-24T03:27:53.793Z,76.8
2016-07-24T03:28:53.824Z,76.61
2016-07-24T03:29:54.554Z,76.61
2016-07-24T03:30:53.874Z,76.71
2016-07-24T03:31:53.903Z,77.09
2016-07-24T03:32:53.928Z,76.9
2016-07-24T03:33:53.967Z,77.19
2016-07-24T03:34:54.697Z,77.09
2016-07-24T03:35:54.019Z,77.09
2016-07-24T03:36:54.043Z,77.38
2016-07-24T03:37:54.077Z,77.28
2016-07-24T03:38:54.103Z,77.28
2016-07-24T03:39:54.131Z,77.28
2016-07-24T03:40:54.157Z,77
2016-07-24T03:41:54.186Z,76.71
2016-07-24T03:42:54.225Z,77.09
2016-07-24T03:43:54.271Z,77.03
2016-07-24T03:44:54.270Z,77.38
2016-07-24T03:45:55.009Z,77.33
2016-07-24T03:46:54.326Z,77.13
2016-07-24T03:47:54.357Z,76.84
2016-07-24T03:48:54.384Z,76.93
2016-07-24T03:49:54.416Z,77.13
2016-07-24T03:50:54.447Z,77.03
2016-07-24T03:51:54.486Z,76.93
2016-07-24T03:52:54.501Z,77.13
2016-07-24T03:53:54.527Z,77.23
2016-07-24T03:54:54.556Z,76.75
2016-07-24T03:55:54.584Z,76.65
2016-07-24T03:56:54.608Z,77.03
2016-07-24T03:57:54.644Z,76.84
2016-07-24T03:58:54.695Z,76.45
2016-07-24T03:59:54.710Z,76.36
2016-07-24T04:00:55.437Z,76.93
2016-07-24T04:01:54.756Z,76.93
2016-07-24T04:02:55.499Z,76.93
2016-07-24T04:03:55.525Z,76.93
2016-07-24T04:04:54.842Z,76.55
2016-07-24T04:05:54.872Z,76.93
2016-07-24T04:06:54.908Z,76.26
2016-07-24T04:07:54.925Z,76.55
2016-07-24T04:08:54.958Z,76.55
2016-07-24T04:09:54.986Z,76.07
2016-07-24T04:10:55.029Z,76.55
2016-07-24T04:11:55.041Z,76.65
2016-07-24T04:12:55.076Z,76.93
2016-07-24T04:13:55.097Z,76.93
2016-07-24T04:14:55.139Z,76.55
2016-07-24T04:15:55.159Z,76.75
2016-07-24T04:16:55.197Z,76.55
2016-07-24T04:17:55.215Z,76.65
2016-07-24T04:18:55.245Z,76.45
2016-07-24T04:19:55.271Z,76.84
2016-07-24T04:20:56.011Z,77.03
2016-07-24T04:21:55.326Z,77.03
2016-07-24T04:22:55.356Z,77.03
2016-07-24T04:23:55.387Z,77.03
2016-07-24T04:24:55.412Z,76.65
2016-07-24T04:25:55.440Z,76.93
2016-07-24T04:26:55.471Z,77.03
2016-07-24T04:27:55.502Z,77.09
2016-07-24T04:28:55.531Z,77
2016-07-24T04:29:55.557Z,76.9
2016-07-24T04:30:55.594Z,76.8
2016-07-24T04:31:56.321Z,76.84
2016-07-24T04:32:55.641Z,76.8
2016-07-24T04:33:55.673Z,76.32
2016-07-24T04:34:55.697Z,77.19
2016-07-24T04:35:55.727Z,76.93
2016-07-24T04:36:55.758Z,77
2016-07-24T04:37:55.783Z,76.75
2016-07-24T04:38:55.810Z,77.13
2016-07-24T04:39:56.562Z,76.93
2016-07-24T04:40:55.884Z,76.71
2016-07-24T04:41:55.897Z,77.09
2016-07-24T04:42:55.931Z,77.42
2016-07-24T04:43:55.968Z,77
2016-07-24T04:44:55.983Z,76.9
2016-07-24T04:45:56.016Z,76.45
2016-07-24T04:46:56.044Z,76.9
2016-07-24T04:47:56.093Z,76.8
2016-07-24T04:48:56.100Z,76.8
2016-07-24T04:49:56.125Z,76.55
2016-07-24T04:50:56.155Z,76.8
2016-07-24T04:51:56.193Z,76.51
2016-07-24T04:52:56.212Z,76.13
2016-07-24T04:53:56.239Z,76.26
2016-07-24T04:54:56.981Z,76.07
2016-07-24T04:55:56.306Z,76.45
2016-07-24T04:56:56.326Z,75.97
2016-07-24T04:57:56.354Z,76.03
2016-07-24T04:58:56.379Z,75.88
2016-07-24T04:59:56.410Z,76.45
2016-07-24T05:00:56.439Z,76.23
2016-07-24T05:01:57.179Z,75.97
2016-07-24T05:02:56.499Z,75.97
2016-07-24T05:03:56.524Z,75.84
2016-07-24T05:04:56.551Z,75.84
2016-07-24T05:05:56.581Z,75.88
2016-07-24T05:06:56.611Z,75.93
2016-07-24T05:07:57.348Z,76.13
2016-07-24T05:08:56.665Z,76.13
2016-07-24T05:09:56.694Z,75.93
2016-07-24T05:10:56.727Z,76.03
2016-07-24T05:11:56.752Z,76.03
2016-07-24T05:12:56.781Z,76.26
2016-07-24T05:13:56.810Z,76.32
2016-07-24T05:14:56.838Z,75.97
2016-07-24T05:15:56.867Z,76.13
2016-07-24T05:16:56.894Z,76.36
2016-07-24T05:17:56.924Z,77.13
2016-07-24T05:18:56.950Z,76.65
2016-07-24T05:19:56.996Z,76.17
2016-07-24T05:20:57.029Z,76.45
2016-07-24T05:21:57.041Z,75.97
2016-07-24T05:22:57.063Z,75.88
2016-07-24T05:23:57.095Z,75.78
2016-07-24T05:24:57.123Z,75.68
2016-07-24T05:25:57.153Z,75.88
2016-07-24T05:26:57.182Z,75.3
2016-07-24T05:27:57.214Z,75.49
2016-07-24T05:28:57.246Z,75.59
2016-07-24T05:29:57.266Z,75.2
2016-07-24T05:30:58.011Z,75.68
2016-07-24T05:31:57.324Z,75.3
2016-07-24T05:32:57.354Z,75.1
2016-07-24T05:33:57.383Z,74.72
2016-07-24T05:34:57.410Z,74.43
2016-07-24T05:35:57.452Z,74.91
2016-07-24T05:36:57.477Z,75.1
2016-07-24T05:37:57.497Z,75.3
2016-07-24T05:38:57.523Z,74.76
2016-07-24T05:39:57.568Z,74.95
2016-07-24T05:40:57.583Z,74.76
2016-07-24T05:41:57.613Z,74.91
2016-07-24T05:42:57.640Z,74.76
2016-07-24T05:43:57.670Z,75.24
2016-07-24T05:44:57.698Z,75.24
2016-07-24T05:45:57.729Z,74.66
2016-07-24T05:46:57.756Z,75.14
2016-07-24T05:47:57.783Z,74.76
2016-07-24T05:48:57.811Z,74.37
2016-07-24T05:49:57.843Z,74.57
2016-07-24T05:50:57.871Z,75.34
2016-07-24T05:51:57.901Z,75.24
2016-07-24T05:52:57.926Z,75.82
2016-07-24T05:53:57.957Z,76.5
2016-07-24T05:54:57.984Z,76.2
2016-07-24T05:55:58.014Z,76.01
2016-07-24T05:56:58.044Z,75.82
2016-07-24T05:57:58.072Z,76.01
2016-07-24T05:58:58.101Z,75.85
2016-07-24T05:59:58.135Z,75.37
2016-07-24T06:00:58.160Z,75.18
2016-07-24T06:01:58.208Z,75.09
2016-07-24T06:02:58.219Z,75.37
2016-07-24T06:03:58.247Z,74.31
2016-07-24T06:04:58.276Z,74.02
2016-07-24T06:05:58.305Z,74.02
2016-07-24T06:06:58.340Z,74.02
2016-07-24T06:07:58.364Z,74.02
2016-07-24T06:08:58.420Z,74.31
2016-07-24T06:09:58.426Z,74.12
2016-07-24T06:10:58.449Z,73.93
2016-07-24T06:11:58.480Z,74.12
2016-07-24T06:12:58.510Z,74.02
2016-07-24T06:13:58.537Z,74.02
2016-07-24T06:14:58.569Z,73.54
2016-07-24T06:15:58.597Z,73.44
2016-07-24T06:16:58.634Z,74.54
2016-07-24T06:17:58.655Z,74.64
2016-07-24T06:18:58.684Z,74.64
2016-07-24T06:19:59.426Z,74.73
2016-07-24T06:20:59.455Z,75.22
2016-07-24T06:21:58.774Z,74.25
2016-07-24T06:22:58.800Z,74.35
2016-07-24T06:23:58.830Z,74.64
2016-07-24T06:24:58.865Z,74.35
2016-07-24T06:25:58.897Z,74.35
2016-07-24T06:26:58.921Z,74.54
2016-07-24T06:27:58.950Z,74.25
2016-07-24T06:28:58.979Z,74.44
2016-07-24T06:29:59.008Z,75.12
2016-07-24T06:30:59.038Z,74.29
2016-07-24T06:31:59.067Z,74.16
2016-07-24T06:32:59.096Z,72.45
2016-07-24T06:33:59.137Z,72.26
2016-07-24T06:34:59.154Z,72.74
2016-07-24T06:35:59.186Z,72.64
2016-07-24T06:36:59.220Z,71.88
2016-07-24T06:37:59.241Z,71.1
2016-07-24T06:38:59.276Z,72.06
2016-07-24T06:40:00.011Z,71.88
2016-07-24T06:40:59.342Z,72.45
2016-07-24T06:41:59.369Z,72.36
2016-07-24T06:42:59.393Z,71.48
2016-07-24T06:43:59.435Z,70.32
2016-07-24T06:44:59.450Z,72.16
2016-07-24T06:45:59.482Z,71.97
2016-07-24T06:46:59.513Z,71.2
2016-07-24T06:47:59.541Z,71.88
2016-07-24T06:49:00.283Z,72.68
2016-07-24T06:49:59.600Z,73.61
2016-07-24T06:50:59.627Z,73.07
2016-07-24T06:51:59.659Z,72.58
2016-07-24T06:52:59.688Z,72.68
2016-07-24T06:53:59.723Z,72
2016-07-24T06:54:59.745Z,72
2016-07-24T06:55:59.779Z,71.42
2016-07-24T06:56:59.811Z,71.52
2016-07-24T06:57:59.839Z,72.2
2016-07-24T06:58:59.882Z,70.94
2016-07-24T06:59:59.898Z,71.33
2016-07-24T07:00:59.927Z,71.91
2016-07-24T07:01:59.957Z,71.14
2016-07-24T07:02:59.987Z,70.94
2016-07-24T07:04:00.018Z,71.23
2016-07-24T07:05:00.047Z,71.14
2016-07-24T07:06:00.088Z,71.04
2016-07-24T07:07:00.112Z,70.65
2016-07-24T07:08:00.140Z,70.84
2016-07-24T07:09:00.166Z,70.88
2016-07-24T07:10:00.196Z,69.53
2016-07-24T07:11:00.230Z,68.66
2016-07-24T07:12:00.260Z,68.56
2016-07-24T07:13:00.308Z,68.75
2016-07-24T07:14:00.320Z,69.53
2016-07-24T07:15:00.350Z,69.62
2016-07-24T07:16:00.380Z,69.53
2016-07-24T07:17:00.424Z,69.14
2016-07-24T07:18:00.440Z,69.62
2016-07-24T07:19:00.469Z,69.14
2016-07-24T07:20:00.500Z,68.66
2016-07-24T07:21:00.532Z,68.46
2016-07-24T07:22:00.584Z,68.88
2016-07-24T07:23:00.594Z,69.08
2016-07-24T07:24:00.625Z,69.66
2016-07-24T07:25:00.651Z,69.66
2016-07-24T07:26:00.685Z,69.56
2016-07-24T07:27:00.711Z,69.66
2016-07-24T07:28:00.744Z,69.85
2016-07-24T07:29:00.773Z,68.79
2016-07-24T07:30:00.806Z,68.79
2016-07-24T07:31:01.546Z,68.3
2016-07-24T07:32:00.867Z,68.21
2016-07-24T07:33:00.897Z,67.63
2016-07-24T07:34:00.927Z,68.15
2016-07-24T07:35:01.673Z,69.59
2016-07-24T07:36:00.988Z,69.59
2016-07-24T07:37:01.022Z,68.73
2016-07-24T07:38:01.051Z,69.89
2016-07-24T07:39:01.081Z,69.69
2016-07-24T07:40:01.122Z,68.33
2016-07-24T07:41:01.144Z,68.73
2016-07-24T07:42:01.177Z,69.01
2016-07-24T07:43:01.206Z,68.24
2016-07-24T07:44:01.237Z,67.88
2016-07-24T07:45:01.266Z,67.88
2016-07-24T07:46:01.298Z,67.5
2016-07-24T07:47:01.329Z,68.08
2016-07-24T07:48:01.361Z,68.37
2016-07-24T07:49:01.391Z,67.02
2016-07-24T07:50:01.424Z,67.02
2016-07-24T07:51:01.454Z,66.92
2016-07-24T07:52:01.482Z,67.69
2016-07-24T07:53:01.516Z,67.79
2016-07-24T07:54:01.550Z,67.88
2016-07-24T07:55:01.578Z,67.98
2016-07-24T07:56:01.616Z,67.79
2016-07-24T07:57:01.640Z,68.27
2016-07-24T07:58:01.672Z,68.08
2016-07-24T07:59:01.703Z,68.37
2016-07-24T08:00:01.736Z,68.18
2016-07-24T08:01:01.765Z,66.82
2016-07-24T08:02:01.795Z,66.37
2016-07-24T08:03:01.827Z,66.53
2016-07-24T08:04:02.566Z,66.14
2016-07-24T08:05:01.892Z,65.37
2016-07-24T08:06:01.921Z,65.75
2016-07-24T08:07:01.953Z,66.63
2016-07-24T08:08:01.982Z,66.34
2016-07-24T08:09:02.015Z,66.85
2016-07-24T08:10:02.046Z,67.4
2016-07-24T08:11:02.078Z,67.72
2016-07-24T08:12:02.107Z,66.92
2016-07-24T08:13:02.143Z,65.98
2016-07-24T08:14:02.172Z,65.98
2016-07-24T08:15:02.202Z,66.37
2016-07-24T08:16:02.234Z,65.5
2016-07-24T08:17:02.264Z,65.2
2016-07-24T08:18:02.297Z,64.72
2016-07-24T08:19:02.327Z,63.85
2016-07-24T08:20:02.368Z,64.34
2016-07-24T08:21:02.390Z,64.04
2016-07-24T08:22:02.419Z,64.14
2016-07-24T08:23:03.165Z,64.14
2016-07-24T08:24:02.483Z,64.82
2016-07-24T08:25:02.516Z,64.43
2016-07-24T08:26:03.258Z,63.95
2016-07-24T08:27:02.579Z,63.75
2016-07-24T08:28:03.339Z,62.69
2016-07-24T08:29:02.643Z,63.27
2016-07-24T08:30:02.671Z,63.75
2016-07-24T08:31:02.704Z,63.46
2016-07-24T08:32:02.737Z,63.75
2016-07-24T08:33:02.766Z,65.11
2016-07-24T08:34:02.799Z,64.43
2016-07-24T08:35:02.830Z,64.43
2016-07-24T08:36:03.573Z,64.24
2016-07-24T08:37:02.892Z,64.04
2016-07-24T08:38:02.923Z,63.95
2016-07-24T08:39:02.953Z,64.82
2016-07-24T08:40:02.986Z,64.34
2016-07-24T08:41:03.016Z,63.37
2016-07-24T08:42:03.048Z,64.04
2016-07-24T08:43:03.081Z,62.91
2016-07-24T08:44:03.110Z,62.62
2016-07-24T08:45:03.865Z,63.2
2016-07-24T08:46:03.175Z,64.37
2016-07-24T08:47:03.207Z,64.85
2016-07-24T08:48:03.238Z,65.14
2016-07-24T08:49:03.472Z,65.34
2016-07-24T08:50:03.298Z,64.65
2016-07-24T08:51:04.043Z,64.78
2016-07-24T08:52:03.364Z,64.4
2016-07-24T08:53:04.105Z,63.43
2016-07-24T08:54:03.442Z,61.68
2016-07-24T08:55:03.457Z,60.81
2016-07-24T08:56:04.200Z,60.42
2016-07-24T08:57:03.520Z,61.58
2016-07-24T08:58:03.554Z,60.91
2016-07-24T08:59:03.584Z,61.58
2016-07-24T09:00:03.620Z,61
2016-07-24T09:01:03.651Z,62.26
2016-07-24T09:02:03.682Z,62.07
2016-07-24T09:03:03.713Z,61.68
2016-07-24T09:04:03.746Z,59.55
2016-07-24T09:05:03.778Z,60.03
2016-07-24T09:06:03.807Z,60.52
2016-07-24T09:07:04.550Z,61.29
2016-07-24T09:08:03.965Z,60.35
2016-07-24T09:09:03.926Z,60.16
2016-07-24T09:10:03.936Z,61.52
2016-07-24T09:11:03.971Z,59.67
2016-07-24T09:12:03.997Z,60.64
2016-07-24T09:13:04.032Z,60.16
2016-07-24T09:14:04.062Z,59.77
2016-07-24T09:15:04.097Z,60.35
2016-07-24T09:16:04.128Z,60.25
2016-07-24T09:17:04.163Z,60.64
2016-07-24T09:18:04.190Z,60.74
2016-07-24T09:19:04.247Z,60.48
2016-07-24T09:20:04.259Z,58.7
2016-07-24T09:21:04.296Z,59
2016-07-24T09:22:04.321Z,59.28
2016-07-24T09:23:04.367Z,59.48
2016-07-24T09:24:04.385Z,60.09
2016-07-24T09:25:04.417Z,60.19
2016-07-24T09:26:04.496Z,59.12
2016-07-24T09:27:05.195Z,59.61
2016-07-24T09:28:04.514Z,59.41
2016-07-24T09:29:04.549Z,58.34
2016-07-24T09:30:04.782Z,58.34
2016-07-24T09:31:04.611Z,59.31
2016-07-24T09:32:04.644Z,59.31
2016-07-24T09:33:04.674Z,59.12
2016-07-24T09:34:05.421Z,58.73
2016-07-24T09:35:04.764Z,59.22
2016-07-24T09:36:04.774Z,58.05
2016-07-24T09:37:04.807Z,58.64
2016-07-24T09:38:04.838Z,59.22
2016-07-24T09:39:04.870Z,58.83
2016-07-24T09:40:04.903Z,58.15
2016-07-24T09:41:04.937Z,58.37
2016-07-24T09:42:04.968Z,58.57
2016-07-24T09:43:05.002Z,58.95
2016-07-24T09:44:05.051Z,59.34
2016-07-24T09:45:05.067Z,59.25
2016-07-24T09:46:05.810Z,57.6
2016-07-24T09:47:05.131Z,56.43
2016-07-24T09:48:05.165Z,57.31
2016-07-24T09:49:05.908Z,56.72
2016-07-24T09:50:05.230Z,56.82
2016-07-24T09:51:05.263Z,56.82
2016-07-24T09:52:05.297Z,56.52
2016-07-24T09:53:05.328Z,56.72
2016-07-24T09:54:05.360Z,56.26
2016-07-24T09:55:05.392Z,56.34
2016-07-24T09:56:05.427Z,56.16
2016-07-24T09:57:06.168Z,55.98
2016-07-24T09:58:05.491Z,56.04
2016-07-24T09:59:05.523Z,56.14
2016-07-24T10:00:05.570Z,54.88
2016-07-24T10:01:05.595Z,54.97
2016-07-24T10:02:05.624Z,54.97
2016-07-24T10:03:05.655Z,54.1
2016-07-24T10:04:06.398Z,55.36
2016-07-24T10:05:05.719Z,56.92
2016-07-24T10:06:05.751Z,56.24
2016-07-24T10:07:05.783Z,56.07
2016-07-24T10:08:05.816Z,56.16
2016-07-24T10:09:05.856Z,56.07
2016-07-24T10:10:05.885Z,55.49
2016-07-24T10:11:05.917Z,54.8
2016-07-24T10:12:05.948Z,54.32
2016-07-24T10:13:05.983Z,54.71
2016-07-24T10:14:06.017Z,56.07
2016-07-24T10:15:06.051Z,56.26
2016-07-24T10:16:06.081Z,53.47
2016-07-24T10:17:06.115Z,54.35
2016-07-24T10:18:06.168Z,54.74
2016-07-24T10:19:06.179Z,53.96
2016-07-24T10:20:06.214Z,54.74
2016-07-24T10:21:06.246Z,55.03
2016-07-24T10:22:06.280Z,54.93
2016-07-24T10:23:06.312Z,53.28
2016-07-24T10:24:06.345Z,52.31
2016-07-24T10:25:06.384Z,51.72
2016-07-24T10:26:06.413Z,52.11
2016-07-24T10:27:06.443Z,53.38
2016-07-24T10:28:06.476Z,53.47
2016-07-24T10:29:06.512Z,53.96
2016-07-24T10:30:06.542Z,53.67
2016-07-24T10:31:06.577Z,54.93
2016-07-24T10:32:06.608Z,54.96
2016-07-24T10:33:06.649Z,54.18
2016-07-24T10:34:06.679Z,54.76
2016-07-24T10:35:06.711Z,55.05
2016-07-24T10:36:07.451Z,53.89
2016-07-24T10:37:06.777Z,53.11
2016-07-24T10:38:06.810Z,53.2
2016-07-24T10:39:07.554Z,52.43
2016-07-24T10:40:07.592Z,52.04
2016-07-24T10:41:06.910Z,51.94
2016-07-24T10:42:06.959Z,51.55
2016-07-24T10:43:06.978Z,51.36
2016-07-24T10:44:07.009Z,51.84
2016-07-24T10:45:07.047Z,51.07
2016-07-24T10:46:07.789Z,50.48
2016-07-24T10:47:07.110Z,50.97
2016-07-24T10:48:07.854Z,52.04
2016-07-24T10:49:07.203Z,52.23
2016-07-24T10:50:07.213Z,51.94
2016-07-24T10:51:07.248Z,51.36
2016-07-24T10:52:07.478Z,51.55
2016-07-24T10:53:07.311Z,51.97
2016-07-24T10:54:07.344Z,52.45
2016-07-24T10:55:07.379Z,51.19
2016-07-24T10:56:07.411Z,48.75
2016-07-24T10:57:07.444Z,49.34
2016-07-24T10:58:07.478Z,48.63
2016-07-24T10:59:08.233Z,49.63
2016-07-24T11:00:07.557Z,49.92
2016-07-24T11:01:07.578Z,49.44
2016-07-24T11:02:07.614Z,48.66
2016-07-24T11:03:07.646Z,48.75
2016-07-24T11:04:07.683Z,48.27
2016-07-24T11:05:07.714Z,46.61
2016-07-24T11:06:07.748Z,47.69
2016-07-24T11:07:07.784Z,46.51
2016-07-24T11:08:07.835Z,47.69
2016-07-24T11:09:07.848Z,47.59
2016-07-24T11:10:07.881Z,46.71
2016-07-24T11:11:07.916Z,46.61
2016-07-24T11:12:07.950Z,46.61
2016-07-24T11:13:07.985Z,45.95
2016-07-24T11:14:08.015Z,45.74
2016-07-24T11:15:08.054Z,48
2016-07-24T11:16:08.084Z,48.29
2016-07-24T11:17:08.119Z,45.64
2016-07-24T11:18:08.151Z,45.74
2016-07-24T11:19:08.187Z,44.86
2016-07-24T11:20:08.221Z,44.57
2016-07-24T11:21:08.252Z,44.67
2016-07-24T11:22:08.287Z,46.13
2016-07-24T11:23:08.321Z,46.91
2016-07-24T11:24:08.355Z,47.1
2016-07-24T11:25:08.389Z,45.94
2016-07-24T11:26:08.420Z,47.78
2016-07-24T11:27:08.453Z,46.13
2016-07-24T11:28:09.201Z,45.94
2016-07-24T11:29:08.519Z,45.64
2016-07-24T11:30:08.554Z,47.3
2016-07-24T11:31:08.587Z,46.71
2016-07-24T11:32:08.630Z,46.51
2016-07-24T11:33:08.654Z,47.49
2016-07-24T11:34:08.688Z,48.85
2016-07-24T11:35:08.723Z,49.63
2016-07-24T11:36:08.756Z,49.46
2016-07-24T11:37:08.790Z,50.34
2016-07-24T11:38:08.825Z,51.21
2016-07-24T11:39:08.863Z,48.29
2016-07-24T11:40:08.891Z,47.71
2016-07-24T11:41:08.938Z,46.44
2016-07-24T11:42:08.964Z,48
2016-07-24T11:43:08.991Z,46.86
2016-07-24T11:44:09.026Z,47.25
2016-07-24T11:45:09.057Z,46.73
2016-07-24T11:46:09.296Z,43.93
2016-07-24T11:47:09.128Z,43.25
2016-07-24T11:48:09.159Z,43.25
2016-07-24T11:49:09.219Z,44.3
2016-07-24T11:50:09.232Z,46.93
2016-07-24T11:51:09.263Z,47.05
2016-07-24T11:52:09.307Z,45.88
2016-07-24T11:53:09.330Z,44.62
2016-07-24T11:54:09.365Z,44.42
2016-07-24T11:55:10.109Z,45.39
2016-07-24T11:56:09.433Z,46.39
2016-07-24T11:57:09.466Z,46.97
2016-07-24T11:58:09.500Z,46.69
2016-07-24T12:00:09.569Z,47.27
2016-07-24T12:01:09.605Z,46.3
2016-07-24T12:02:09.638Z,46.2
2016-07-24T12:03:09.684Z,44.64
2016-07-24T12:04:09.704Z,43.08
2016-07-24T12:05:09.742Z,42.98
2016-07-24T12:06:10.481Z,41.52
2016-07-24T12:07:09.813Z,42.3
2016-07-24T12:08:09.844Z,42.88
2016-07-24T12:09:10.587Z,43.37
2016-07-24T12:10:09.910Z,43.08
2016-07-24T12:11:09.946Z,42.3
2016-07-24T12:12:09.979Z,42.3
2016-07-24T12:13:10.014Z,41.91
2016-07-24T12:14:10.050Z,43.29
2016-07-24T12:15:10.797Z,44.66
2016-07-24T12:16:10.123Z,45.25
2016-07-24T12:17:10.148Z,46.12
2016-07-24T12:18:10.191Z,45.73
2016-07-24T12:19:10.219Z,44.37
2016-07-24T12:20:10.266Z,41.54
2016-07-24T12:21:10.288Z,41.83
2016-07-24T12:22:10.329Z,42.32
2016-07-24T12:23:10.369Z,42.22
2016-07-24T12:24:10.400Z,42.71
2016-07-24T12:25:11.138Z,44.19
2016-07-24T12:26:10.462Z,44.56
2016-07-24T12:27:11.207Z,46.04
2016-07-24T12:28:10.530Z,46.44
2016-07-24T12:29:11.281Z,45.85
2016-07-24T12:30:10.603Z,45.65
2016-07-24T12:31:10.633Z,44.58
2016-07-24T12:32:10.670Z,43.99
2016-07-24T12:33:10.713Z,44.68
2016-07-24T12:34:10.741Z,45.95
2016-07-24T12:35:10.778Z,45.17
2016-07-24T12:36:10.810Z,43.8
2016-07-24T12:37:10.852Z,43.61
2016-07-24T12:38:10.880Z,43.8
2016-07-24T12:39:11.627Z,44.29
2016-07-24T12:40:10.955Z,44.29
2016-07-24T12:41:10.989Z,43.99
2016-07-24T12:42:11.034Z,43.51
2016-07-24T12:43:11.053Z,44.19
2016-07-24T12:44:11.089Z,44.78
2016-07-24T12:45:11.132Z,44.66
2016-07-24T12:46:11.157Z,43.71
2016-07-24T12:47:11.917Z,44.29
2016-07-24T12:48:11.229Z,44.66
2016-07-24T12:49:11.261Z,45.05
2016-07-24T12:50:11.301Z,44.76
2016-07-24T12:51:11.329Z,44.85
2016-07-24T12:52:12.079Z,44.66
2016-07-24T12:53:11.396Z,45.34
2016-07-24T12:54:11.432Z,45.34
2016-07-24T12:55:11.473Z,45.25
2016-07-24T12:56:11.498Z,44.46
2016-07-24T12:57:11.534Z,44.95